| time (UTC) | temp F | wind direction | speed MPH | gust MPH | rain 1hr in | rain 24hr in | rain mn in | humidity % | barometer mb |
| 20260506171551 | 66 | 348 | 4.0 | 10.0 | 0.00 | 0.00 | 0.00 | 63 | 937.3 |
| 20260506171040 | 65 | 301 | 5.0 | 11.0 | 0.00 | 0.00 | 0.00 | 64 | 937.3 |
| 20260506170539 | 65 | 346 | 4.0 | 11.0 | 0.00 | 0.00 | 0.00 | 64 | 937.3 |
| 20260506170037 | 65 | 348 | 4.0 | 9.0 | 0.00 | 0.00 | 0.00 | 65 | 937.3 |
| 20260506165537 | 65 | 332 | 4.0 | 9.0 | 0.00 | 0.00 | 0.00 | 64 | 937.3 |
| 20260506165036 | 65 | 331 | 6.0 | 11.0 | 0.00 | 0.00 | 0.00 | 65 | 937.3 |
| 20260506164536 | 64 | 311 | 6.0 | 11.0 | 0.00 | 0.00 | 0.00 | 66 | 937.3 |
| 20260506164034 | 64 | 304 | 6.0 | 11.0 | 0.00 | 0.00 | 0.00 | 65 | 937.3 |
| 20260506163537 | 64 | 306 | 6.0 | 13.0 | 0.00 | 0.00 | 0.00 | 65 | 937.3 |
| 20260506163034 | 64 | 304 | 8.0 | 13.0 | 0.00 | 0.00 | 0.00 | 66 | 937.3 |
| 20260506162532 | 64 | 289 | 4.0 | 11.0 | 0.00 | 0.00 | 0.00 | 68 | 937.3 |
| 20260506162033 | 64 | 319 | 5.0 | 11.0 | 0.00 | 0.00 | 0.00 | 68 | 937.3 |
| 20260506161528 | 64 | 273 | 6.0 | 13.0 | 0.00 | 0.00 | 0.00 | 68 | 937.3 |
| 20260506161026 | 63 | 307 | 6.0 | 13.0 | 0.00 | 0.00 | 0.00 | 68 | 937.3 |
| 20260506160529 | 63 | 302 | 5.0 | 9.0 | 0.00 | 0.00 | 0.00 | 68 | 937.3 |
| 20260506160036 | 63 | 335 | 5.0 | 10.0 | 0.00 | 0.01 | 0.00 | 68 | 937.3 |
| 20260506155524 | 63 | 333 | 5.0 | 10.0 | 0.00 | 0.01 | 0.00 | 68 | 937.3 |
| 20260506155023 | 63 | 331 | 4.0 | 9.0 | 0.00 | 0.01 | 0.00 | 69 | 937.3 |
| 20260506154524 | 63 | 320 | 6.0 | 10.0 | 0.00 | 0.01 | 0.00 | 69 | 937.3 |
| 20260506154022 | 63 | 332 | 6.0 | 10.0 | 0.00 | 0.01 | 0.00 | 69 | 937.3 |
| 20260506153520 | 63 | 315 | 8.0 | 11.0 | 0.00 | 0.01 | 0.00 | 70 | 937.3 |
| 20260506153020 | 62 | 290 | 6.0 | 11.0 | 0.00 | 0.01 | 0.00 | 70 | 937.3 |
| 20260506152517 | 62 | 317 | 6.0 | 10.0 | 0.00 | 0.01 | 0.00 | 70 | 937.3 |
| 20260506152016 | 62 | 304 | 7.0 | 10.0 | 0.00 | 0.01 | 0.00 | 70 | 937.3 |
| 20260506151517 | 62 | 312 | 5.0 | 10.0 | 0.00 | 0.01 | 0.00 | 71 | 937.3 |
| 20260506151012 | 62 | 335 | 5.0 | 10.0 | 0.00 | 0.01 | 0.00 | 72 | 937.3 |
| 20260506150511 | 62 | 325 | 6.0 | 11.0 | 0.00 | 0.01 | 0.00 | 72 | 937.3 |
| 20260506150009 | 62 | 324 | 7.0 | 11.0 | 0.00 | 0.01 | 0.00 | 72 | 937.3 |
| 20260506145508 | 61 | 342 | 5.0 | 9.0 | 0.00 | 0.01 | 0.00 | 72 | 937.3 |
| 20260506145006 | 61 | 322 | 5.0 | 11.0 | 0.00 | 0.01 | 0.00 | 73 | 937.3 |
| 20260506144505 | 61 | 331 | 7.0 | 11.0 | 0.00 | 0.01 | 0.00 | 73 | 937.3 |
| 20260506144006 | 61 | 342 | 5.0 | 9.0 | 0.00 | 0.01 | 0.00 | 73 | 937.3 |
| 20260506143502 | 61 | 328 | 6.0 | 9.0 | 0.00 | 0.01 | 0.00 | 74 | 937.3 |
| 20260506143102 | 61 | 343 | 5.0 | 8.0 | 0.00 | 0.01 | 0.00 | 74 | 937.3 |
| 20260506142602 | 61 | 355 | 4.0 | 6.0 | 0.00 | 0.01 | 0.00 | 75 | 937.3 |
| 20260506142058 | 61 | 342 | 4.0 | 6.0 | 0.00 | 0.01 | 0.00 | 75 | 937.3 |
| 20260506141550 | 61 | 339 | 4.0 | 6.0 | 0.00 | 0.01 | 0.00 | 75 | 937.3 |
| 20260506141048 | 60 | 334 | 3.0 | 6.0 | 0.00 | 0.01 | 0.00 | 75 | 937.3 |
| 20260506140549 | 60 | 325 | 4.0 | 6.0 | 0.00 | 0.01 | 0.00 | 75 | 937.3 |
| 20260506140046 | 60 | 343 | 3.0 | 4.0 | 0.00 | 0.01 | 0.00 | 75 | 937.3 |
| 20260506135544 | 60 | 329 | 2.0 | 5.0 | 0.00 | 0.01 | 0.00 | 76 | 937.3 |
| 20260506135043 | 60 | 327 | 2.0 | 4.0 | 0.00 | 0.01 | 0.00 | 76 | 937.3 |
| 20260506134546 | 60 | 329 | 2.0 | 4.0 | 0.00 | 0.01 | 0.00 | 75 | 937.3 |
| 20260506134041 | 60 | 330 | 2.0 | 4.0 | 0.00 | 0.01 | 0.00 | 75 | 937.1 |
| 20260506133541 | 60 | 331 | 1.0 | 4.0 | 0.00 | 0.01 | 0.00 | 76 | 854.4 |
| 20260506133040 | 60 | 331 | 2.0 | 4.0 | 0.00 | 0.01 | 0.00 | 76 | 854.4 |
| 20260506132540 | 60 | 331 | 1.0 | 4.0 | 0.00 | 0.01 | 0.00 | 76 | 854.4 |
| 20260506132042 | 60 | 323 | 2.0 | 5.0 | 0.00 | 0.01 | 0.00 | 76 | 854.4 |
| 20260506131546 | 60 | 323 | 2.0 | 5.0 | 0.00 | 0.01 | 0.00 | 76 | 854.4 |
| 20260506131034 | 60 | 323 | 2.0 | 4.0 | 0.00 | 0.01 | 0.00 | 76 | 854.4 |
| 20260506130534 | 60 | 329 | 2.0 | 5.0 | 0.00 | 0.01 | 0.00 | 76 | 854.4 |
| 20260506130039 | 60 | 327 | 3.0 | 5.0 | 0.00 | 0.01 | 0.00 | 76 | 854.4 |
| 20260506125533 | 60 | 339 | 3.0 | 5.0 | 0.00 | 0.01 | 0.00 | 76 | 854.4 |
| 20260506125029 | 60 | 325 | 3.0 | 5.0 | 0.00 | 0.01 | 0.00 | 76 | 854.4 |
| 20260506124531 | 60 | 329 | 3.0 | 5.0 | 0.00 | 0.01 | 0.00 | 76 | 854.4 |
| 20260506124028 | 60 | 328 | 3.0 | 5.0 | 0.00 | 0.01 | 0.00 | 77 | 854.4 |
| 20260506123531 | 60 | 329 | 2.0 | 4.0 | 0.00 | 0.01 | 0.00 | 76 | 854.4 |
| 20260506123029 | 60 | 346 | 2.0 | 4.0 | 0.00 | 0.01 | 0.00 | 77 | 854.4 |
| 20260506122531 | 60 | 333 | 2.0 | 4.0 | 0.00 | 0.01 | 0.00 | 76 | 854.4 |
| 20260506122027 | 60 | 345 | 2.0 | 4.0 | 0.00 | 0.01 | 0.00 | 76 | |
| 20260506121527 | 60 | 335 | 3.0 | 5.0 | 0.00 | 0.01 | 0.00 | 77 | |
| 20260506121026 | 59 | 325 | 3.0 | 5.0 | 0.00 | 0.01 | 0.00 | 77 | |
| 20260506120530 | 59 | 323 | 3.0 | 5.0 | 0.00 | 0.01 | 0.00 | 77 | |
| 20260506120026 | 59 | 326 | 3.0 | 4.0 | 0.00 | 0.01 | 0.00 | 77 | |
| 20260506115525 | 59 | 327 | 2.0 | 4.0 | 0.00 | 0.01 | 0.00 | 77 | |
| 20260506115025 | 59 | 332 | 3.0 | 5.0 | 0.00 | 0.01 | 0.00 | 77 | |
| 20260506114525 | 59 | 331 | 3.0 | 5.0 | 0.00 | 0.01 | 0.00 | 77 | |
| 20260506114029 | 59 | 335 | 3.0 | 5.0 | 0.00 | 0.01 | 0.00 | 77 | |
| 20260506113525 | 58 | 360 | 3.0 | 4.0 | 0.00 | 0.01 | 0.00 | 77 | |
| 20260506113025 | 58 | 341 | 1.0 | 3.0 | 0.00 | 0.01 | 0.00 | 77 | |
| 20260506112524 | 57 | 337 | 1.0 | 3.0 | 0.00 | 0.01 | 0.00 | 78 | |
| 20260506112024 | 57 | 22 | 0.0 | 2.0 | 0.00 | 0.01 | 0.00 | 77 | |
| 20260506111523 | 57 | 23 | 0.0 | 0.0 | 0.00 | 0.01 | 0.00 | 76 | |
| 20260506111026 | 57 | 23 | 0.0 | 1.0 | 0.00 | 0.01 | 0.00 | 76 | |
| 20260506110525 | 57 | 23 | 0.0 | 2.0 | 0.00 | 0.01 | 0.00 | 76 | |
| 20260506110024 | 57 | 24 | 0.0 | 2.0 | 0.00 | 0.01 | 0.00 | 76 | |
| 20260506105524 | 57 | 79 | 0.0 | 1.0 | 0.00 | 0.01 | 0.00 | 76 | |
| 20260506105025 | 57 | 80 | 0.0 | 2.0 | 0.00 | 0.01 | 0.00 | 76 | |
| 20260506104522 | 57 | 80 | 0.0 | 2.0 | 0.00 | 0.01 | 0.00 | 76 | |
| 20260506104022 | 57 | 82 | 1.0 | 4.0 | 0.00 | 0.01 | 0.00 | 75 | |
| 20260506103521 | 57 | 83 | 0.0 | 4.0 | 0.00 | 0.01 | 0.00 | 76 | |
| 20260506103032 | 58 | 14 | 1.0 | 5.0 | 0.00 | 0.01 | 0.00 | 76 | |
| 20260506102522 | 58 | 351 | 1.0 | 5.0 | 0.00 | 0.01 | 0.00 | 76 | |
| 20260506102021 | 58 | 355 | 2.0 | 5.0 | 0.00 | 0.01 | 0.00 | 76 | |
| 20260506101522 | 57 | 5 | 2.0 | 5.0 | 0.00 | 0.01 | 0.00 | 76 | |
| 20260506101019 | 57 | 340 | 2.0 | 5.0 | 0.00 | 0.01 | 0.00 | 76 | |
| 20260506100519 | 57 | 342 | 3.0 | 5.0 | 0.00 | 0.01 | 0.00 | 76 | |
| 20260506100018 | 57 | 55 | 0.0 | 3.0 | 0.00 | 0.01 | 0.00 | 75 | |
| 20260506095518 | 57 | 69 | 1.0 | 4.0 | 0.00 | 0.01 | 0.00 | 75 | |
| 20260506095017 | 58 | 349 | 2.0 | 4.0 | 0.00 | 0.01 | 0.00 | 75 | |
| 20260506094519 | 58 | 313 | 2.0 | 4.0 | 0.00 | 0.01 | 0.00 | 75 | |
| 20260506094021 | 58 | 327 | 2.0 | 4.0 | 0.00 | 0.01 | 0.00 | 74 | |
| 20260506093517 | 58 | 334 | 3.0 | 4.0 | 0.00 | 0.01 | 0.00 | 75 | |
| 20260506093018 | 58 | 326 | 0.0 | 2.0 | 0.00 | 0.01 | 0.00 | 74 | |
| 20260506092519 | 58 | 326 | 0.0 | 3.0 | 0.00 | 0.01 | 0.00 | 75 | |
| 20260506092021 | 58 | 326 | 1.0 | 3.0 | 0.00 | 0.01 | 0.00 | 74 | |
| 20260506091616 | 58 | 326 | 1.0 | 3.0 | 0.00 | 0.01 | 0.00 | 75 | |
| 20260506091016 | 58 | 327 | 1.0 | 4.0 | 0.00 | 0.01 | 0.00 | 75 | |
| 20260506090515 | 58 | 329 | 2.0 | 4.0 | 0.00 | 0.01 | 0.00 | 75 | |
| 20260506090015 | 57 | 19 | 0.0 | 2.0 | 0.00 | 0.02 | 0.00 | 74 | |
| 20260506085518 | 57 | 19 | 0.0 | 2.0 | 0.00 | 0.02 | 0.00 | 74 | |
| 20260506085015 | 57 | 19 | 0.0 | 2.0 | 0.00 | 0.02 | 0.00 | 73 | |
| 20260506084514 | 57 | 19 | 0.0 | 1.0 | 0.00 | 0.02 | 0.00 | 73 | |
| 20260506084013 | 57 | 19 | 0.0 | 1.0 | 0.00 | 0.02 | 0.00 | 73 | |
| 20260506083513 | 57 | 19 | 0.0 | 1.0 | 0.00 | 0.02 | 0.00 | 73 | |
| 20260506083012 | 58 | 19 | 0.0 | 1.0 | 0.00 | 0.02 | 0.00 | 73 | |
| 20260506082516 | 58 | 19 | 0.0 | 1.0 | 0.00 | 0.02 | 0.00 | 73 | |
| 20260506082010 | 58 | 19 | 0.0 | 2.0 | 0.00 | 0.02 | 0.00 | 72 | |
| 20260506081510 | 58 | 19 | 1.0 | 2.0 | 0.00 | 0.02 | 0.00 | 72 | |
| 20260506081009 | 58 | 15 | 0.0 | 2.0 | 0.00 | 0.02 | 0.00 | 72 | |
| 20260506080510 | 59 | 338 | 0.0 | 2.0 | 0.00 | 0.02 | 0.00 | 72 | |
| 20260506073504 | 60 | 319 | 2.0 | 5.0 | 0.00 | 0.04 | 0.00 | 72 | |
| 20260506073007 | 60 | 304 | 3.0 | 6.0 | 0.00 | 0.04 | 0.00 | 72 | |
| 20260506072503 | 60 | 321 | 3.0 | 6.0 | 0.00 | 0.04 | 0.00 | 72 | |
| 20260506072003 | 60 | 324 | 3.0 | 4.0 | 0.00 | 0.04 | 0.00 | 72 | |
| 20260506071502 | 60 | 327 | 2.0 | 4.0 | 0.00 | 0.04 | 0.00 | 72 | |
| 20260506071002 | 60 | 319 | 2.0 | 4.0 | 0.00 | 0.04 | 0.00 | 72 | |
| 20260506070503 | 60 | 315 | 3.0 | 5.0 | 0.00 | 0.04 | 0.00 | 72 | |
| 20260506062102 | 61 | 333 | 5.0 | 9.0 | 0.00 | 0.04 | 0.04 | 71 | |
| 20260506061558 | 61 | 304 | 4.0 | 6.0 | 0.00 | 0.04 | 0.04 | 71 | |
| 20260506061102 | 61 | 314 | 3.0 | 5.0 | 0.00 | 0.04 | 0.04 | 71 | |
| 20260506060558 | 61 | 320 | 3.0 | 5.0 | 0.00 | 0.04 | 0.04 | 71 | |
| 20260506060121 | 61 | 319 | 3.0 | 4.0 | 0.00 | 0.04 | 0.04 | 72 | |
| 20260506051055 | 62 | 317 | 2.0 | 4.0 | 0.00 | 0.04 | 0.04 | 71 | 803.7 |
| 20260506050556 | 62 | 326 | 0.0 | 2.0 | 0.00 | 0.04 | 0.04 | 70 | 803.7 |
| 20260506045100 | 62 | 329 | 1.0 | 3.0 | 0.00 | 0.04 | 0.04 | 70 | 803.7 |
| 20260506044610 | 62 | 331 | 1.0 | 3.0 | 0.00 | 0.04 | 0.04 | 71 | 803.7 |
| 20260506044055 | 62 | 334 | 1.0 | 2.0 | 0.00 | 0.04 | 0.04 | 71 | 803.7 |
| 20260506043554 | 62 | 340 | 0.0 | 2.0 | 0.00 | 0.04 | 0.04 | 70 | 803.7 |
| 20260506043054 | 62 | 348 | 0.0 | 2.0 | 0.00 | 0.04 | 0.04 | 70 | 803.7 |
| 20260506042554 | 62 | 319 | 0.0 | 1.0 | 0.00 | 0.04 | 0.04 | 69 | 803.7 |
| 20260506042054 | 62 | 318 | 0.0 | 2.0 | 0.00 | 0.04 | 0.04 | 69 | 803.7 |
| 20260506041556 | 62 | 318 | 0.0 | 2.0 | 0.00 | 0.04 | 0.04 | 69 | 803.7 |
| 20260506041054 | 63 | 322 | 0.0 | 1.0 | 0.00 | 0.04 | 0.04 | 68 | 803.7 |
| 20260506040553 | 63 | 322 | 0.0 | 1.0 | 0.00 | 0.04 | 0.04 | 68 | 803.7 |
| 20260506040053 | 63 | 322 | 0.0 | 2.0 | 0.00 | 0.04 | 0.04 | 67 | 803.7 |
| 20260506035553 | 63 | 323 | 0.0 | 2.0 | 0.00 | 0.04 | 0.04 | 67 | 803.7 |
| 20260506035053 | 64 | 328 | 0.0 | 2.0 | 0.00 | 0.04 | 0.04 | 67 | 803.7 |
| 20260506034553 | 64 | 328 | 0.0 | 3.0 | 0.00 | 0.04 | 0.04 | 67 | 803.7 |
| 20260506034052 | 65 | 328 | 1.0 | 3.0 | 0.00 | 0.04 | 0.04 | 67 | 803.7 |
| 20260506033552 | 65 | 328 | 1.0 | 3.0 | 0.00 | 0.04 | 0.04 | 67 | 803.7 |
| 20260506033052 | 65 | 328 | 1.0 | 3.0 | 0.00 | 0.04 | 0.04 | 67 | 803.7 |
| 20260506032556 | 65 | 328 | 1.0 | 3.0 | 0.00 | 0.04 | 0.04 | 66 | 803.7 |
| 20260506032052 | 65 | 328 | 2.0 | 3.0 | 0.00 | 0.04 | 0.04 | 65 | 803.7 |
| 20260506031557 | 65 | 320 | 0.0 | 1.0 | 0.00 | 0.04 | 0.04 | 64 | 803.7 |
| 20260506031050 | 65 | 320 | 0.0 | 1.0 | 0.00 | 0.04 | 0.04 | 63 | 803.7 |
| 20260506030554 | 66 | 320 | 0.0 | 2.0 | 0.00 | 0.04 | 0.04 | 63 | 803.7 |
| 20260506030052 | 66 | 320 | 0.0 | 2.0 | 0.00 | 0.04 | 0.04 | 63 | 803.7 |
| 20260506025551 | 66 | 321 | 1.0 | 3.0 | 0.00 | 0.04 | 0.04 | 63 | 803.7 |
| 20260506025050 | 66 | 320 | 2.0 | 4.0 | 0.00 | 0.04 | 0.04 | 62 | 803.7 |
| 20260506024558 | 66 | 321 | 2.0 | 4.0 | 0.00 | 0.04 | 0.04 | 62 | 803.7 |
| 20260506024050 | 66 | 321 | 2.0 | 4.0 | 0.00 | 0.04 | 0.04 | 62 | 803.7 |
| 20260506023552 | 67 | 326 | 2.0 | 4.0 | 0.00 | 0.04 | 0.04 | 62 | 803.7 |
| 20260506023050 | 67 | 317 | 2.0 | 4.0 | 0.00 | 0.04 | 0.04 | 61 | 803.7 |
| 20260506022549 | 67 | 319 | 3.0 | 6.0 | 0.00 | 0.04 | 0.04 | 62 | 803.7 |
| 20260506022049 | 67 | 327 | 3.0 | 6.0 | 0.00 | 0.04 | 0.04 | 62 | 803.7 |
| 20260506021549 | 67 | 340 | 4.0 | 6.0 | 0.00 | 0.04 | 0.04 | 62 | 803.7 |
| 20260506021049 | 67 | 342 | 4.0 | 6.0 | 0.00 | 0.04 | 0.04 | 62 | 803.7 |
| 20260506020549 | 67 | 331 | 4.0 | 6.0 | 0.00 | 0.04 | 0.04 | 62 | 803.7 |
| 20260506020048 | 67 | 323 | 4.0 | 6.0 | 0.00 | 0.04 | 0.04 | 61 | 803.7 |
| 20260506015548 | 67 | 312 | 4.0 | 6.0 | 0.00 | 0.04 | 0.04 | 61 | 803.7 |
| 20260506015048 | 67 | 327 | 4.0 | 6.0 | 0.00 | 0.04 | 0.04 | 61 | 803.7 |
| 20260506014547 | 67 | 321 | 3.0 | 8.0 | 0.00 | 0.04 | 0.04 | 62 | 803.7 |
| 20260506014046 | 67 | 319 | 3.0 | 9.0 | 0.00 | 0.04 | 0.04 | 62 | 803.7 |
| 20260506013548 | 67 | 319 | 5.0 | 10.0 | 0.00 | 0.04 | 0.04 | 62 | 803.7 |
| 20260506013046 | 67 | 302 | 7.0 | 10.0 | 0.00 | 0.04 | 0.04 | 62 | 803.7 |
| 20260506012546 | 67 | 292 | 7.0 | 10.0 | 0.00 | 0.04 | 0.04 | 61 | 803.7 |
| 20260506012046 | 67 | 281 | 7.0 | 10.0 | 0.00 | 0.04 | 0.04 | 61 | 803.7 |
| 20260506011545 | 67 | 293 | 6.0 | 10.0 | 0.00 | 0.04 | 0.04 | 61 | 803.7 |
| 20260506011045 | 67 | 296 | 7.0 | 11.0 | 0.00 | 0.04 | 0.04 | 61 | 803.7 |
| 20260506010546 | 67 | 298 | 6.0 | 10.0 | 0.00 | 0.04 | 0.04 | 61 | 803.7 |
| 20260506010046 | 67 | 298 | 4.0 | 8.0 | 0.00 | 0.04 | 0.04 | 62 | 803.7 |
| 20260506005545 | 66 | 302 | 3.0 | 7.0 | 0.00 | 0.04 | 0.04 | 61 | 803.7 |
| 20260506005044 | 67 | 280 | 3.0 | 7.0 | 0.00 | 0.04 | 0.04 | 61 | 803.7 |
| 20260506004544 | 66 | 294 | 2.0 | 8.0 | 0.00 | 0.04 | 0.04 | 62 | 803.7 |
| 20260506004044 | 66 | 273 | 3.0 | 8.0 | 0.00 | 0.04 | 0.04 | 62 | 803.7 |
| 20260506003544 | 66 | 309 | 3.0 | 8.0 | 0.00 | 0.04 | 0.04 | 62 | 803.7 |
| 20260506003044 | 66 | 308 | 5.0 | 9.0 | 0.00 | 0.04 | 0.04 | 62 | 803.7 |
| 20260506002546 | 66 | 288 | 5.0 | 9.0 | 0.00 | 0.04 | 0.04 | 62 | 803.7 |
| 20260506002043 | 66 | 291 | 2.0 | 8.0 | 0.00 | 0.04 | 0.04 | 62 | 803.7 |
| 20260506001546 | 66 | 301 | 5.0 | 9.0 | 0.00 | 0.04 | 0.04 | 62 | 803.7 |
| 20260506001043 | 66 | 302 | 4.0 | 9.0 | 0.00 | 0.04 | 0.04 | 62 | 803.7 |
| 20260506000543 | 66 | 269 | 2.0 | 8.0 | 0.00 | 0.04 | 0.04 | 62 | 803.7 |
| 20260506000043 | 66 | 300 | 2.0 | 6.0 | 0.00 | 0.04 | 0.04 | 62 | 803.7 |
| 20260505235545 | 66 | 336 | 4.0 | 9.0 | 0.00 | 0.04 | 0.04 | 62 | 803.7 |
| 20260505235045 | 66 | 284 | 5.0 | 9.0 | 0.00 | 0.04 | 0.04 | 62 | 803.7 |
| 20260505234547 | 66 | 309 | 0.0 | 5.0 | 0.00 | 0.04 | 0.04 | 62 | 803.7 |
| 20260505234044 | 66 | 335 | 1.0 | 4.0 | 0.00 | 0.04 | 0.04 | 62 | 803.7 |
| 20260505233539 | 66 | 355 | 2.0 | 4.0 | 0.00 | 0.04 | 0.04 | 62 | 803.7 |
| 20260505233039 | 66 | 298 | 2.0 | 4.0 | 0.00 | 0.04 | 0.04 | 63 | 803.7 |
| 20260505232538 | 66 | 302 | 2.0 | 7.0 | 0.00 | 0.04 | 0.04 | 63 | 803.7 |
| 20260505232039 | 66 | 294 | 3.0 | 7.0 | 0.00 | 0.04 | 0.04 | 63 | 803.7 |
| 20260505231550 | 65 | 338 | 3.0 | 6.0 | 0.00 | 0.04 | 0.04 | 63 | 805.1 |
| 20260505231038 | 65 | 302 | 2.0 | 5.0 | 0.00 | 0.04 | 0.04 | 64 | 805.1 |
| 20260505230537 | 65 | 314 | 3.0 | 10.0 | 0.00 | 0.04 | 0.04 | 63 | 805.1 |
| 20260505230051 | 65 | 297 | 3.0 | 10.0 | 0.00 | 0.04 | 0.04 | 63 | 805.1 |
| 20260505225537 | 65 | 301 | 6.0 | 9.0 | 0.00 | 0.04 | 0.04 | 64 | |
| 20260505225041 | 65 | 317 | 4.0 | 8.0 | 0.00 | 0.04 | 0.04 | 63 | |
| 20260505224537 | 65 | 277 | 2.0 | 8.0 | 0.00 | 0.04 | 0.04 | 63 | |
| 20260505224035 | 65 | 286 | 4.0 | 8.0 | 0.00 | 0.04 | 0.04 | 65 | |
| 20260505223536 | 65 | 275 | 5.0 | 11.0 | 0.00 | 0.04 | 0.04 | 64 | |
| 20260505223035 | 65 | 296 | 6.0 | 11.0 | 0.00 | 0.04 | 0.04 | 65 | |
| 20260505222534 | 65 | 331 | 7.0 | 13.0 | 0.00 | 0.04 | 0.04 | 65 | |
| 20260505222034 | 65 | 333 | 9.0 | 13.0 | 0.00 | 0.04 | 0.04 | 65 | |
| 20260505221535 | 65 | 336 | 8.0 | 11.0 | 0.00 | 0.04 | 0.04 | 65 | |
| 20260505221036 | 65 | 329 | 4.0 | 11.0 | 0.00 | 0.04 | 0.04 | 65 | |
| 20260505220533 | 64 | 325 | 7.0 | 11.0 | 0.00 | 0.04 | 0.04 | 65 | |
| 20260505220033 | 64 | 315 | 6.0 | 11.0 | 0.00 | 0.04 | 0.04 | 66 | |
| 20260505215534 | 64 | 321 | 7.0 | 11.0 | 0.00 | 0.04 | 0.04 | 65 | |
| 20260505215033 | 64 | 305 | 8.0 | 13.0 | 0.00 | 0.04 | 0.04 | 65 | |
| 20260505214533 | 64 | 309 | 8.0 | 13.0 | 0.00 | 0.04 | 0.04 | 65 | |
| 20260505214032 | 64 | 329 | 10.0 | 13.0 | 0.00 | 0.04 | 0.04 | 65 | |
| 20260505213533 | 64 | 328 | 8.0 | 13.0 | 0.00 | 0.04 | 0.04 | 65 | |
| 20260505213030 | 64 | 289 | 8.0 | 11.0 | 0.00 | 0.04 | 0.04 | 65 | |
| 20260505212531 | 64 | 338 | 6.0 | 11.0 | 0.00 | 0.04 | 0.04 | 66 | |
| 20260505212031 | 64 | 293 | 7.0 | 12.0 | 0.00 | 0.04 | 0.04 | 66 | |
| 20260505211529 | 64 | 336 | 10.0 | 12.0 | 0.00 | 0.04 | 0.04 | 66 | |
| 20260505211028 | 64 | 299 | 9.0 | 12.0 | 0.00 | 0.04 | 0.04 | 67 | |
| 20260505210529 | 64 | 344 | 6.0 | 12.0 | 0.00 | 0.04 | 0.04 | 66 | |
| 20260505210028 | 64 | 306 | 7.0 | 13.0 | 0.00 | 0.04 | 0.04 | 66 | |
| 20260505205528 | 64 | 306 | 6.0 | 12.0 | 0.00 | 0.04 | 0.04 | 67 | |
| 20260505205028 | 64 | 289 | 9.0 | 11.0 | 0.00 | 0.04 | 0.04 | 67 | |
| 20260505204526 | 63 | 302 | 9.0 | 11.0 | 0.00 | 0.04 | 0.04 | 66 | |
| 20260505204025 | 63 | 302 | 8.0 | 10.0 | 0.00 | 0.04 | 0.04 | 67 | |
| 20260505203526 | 63 | 360 | 2.0 | 8.0 | 0.00 | 0.04 | 0.04 | 66 | |
| 20260505203025 | 63 | 323 | 4.0 | 8.0 | 0.00 | 0.04 | 0.04 | 67 | |
| 20260505202525 | 63 | 312 | 4.0 | 9.0 | 0.00 | 0.04 | 0.04 | 67 | |
| 20260505202024 | 63 | 317 | 5.0 | 9.0 | 0.00 | 0.04 | 0.04 | 67 | |
| 20260505201524 | 62 | 342 | 5.0 | 9.0 | 0.00 | 0.04 | 0.04 | 67 | |
| 20260505201025 | 62 | 313 | 5.0 | 10.0 | 0.00 | 0.04 | 0.04 | 67 | |
| 20260505200527 | 63 | 340 | 6.0 | 12.0 | 0.00 | 0.04 | 0.04 | 67 | |
| 20260505200027 | 63 | 329 | 8.0 | 13.0 | 0.00 | 0.04 | 0.04 | 67 | |
| 20260505195528 | 63 | 294 | 6.0 | 12.0 | 0.00 | 0.04 | 0.04 | 67 | |
| 20260505195023 | 63 | 293 | 5.0 | 11.0 | 0.00 | 0.04 | 0.04 | 66 | |
| 20260505194523 | 63 | 290 | 7.0 | 12.0 | 0.00 | 0.04 | 0.04 | 66 | |
| 20260505194021 | 63 | 288 | 9.0 | 12.0 | 0.00 | 0.04 | 0.04 | 67 | |
| 20260505193524 | 62 | 288 | 8.0 | 12.0 | 0.00 | 0.04 | 0.04 | 67 | |
| 20260505193021 | 62 | 306 | 8.0 | 13.0 | 0.00 | 0.04 | 0.04 | 67 | |
| 20260505192526 | 62 | 325 | 8.0 | 13.0 | 0.00 | 0.04 | 0.04 | 67 | |
| 20260505192020 | 62 | 317 | 8.0 | 13.0 | 0.00 | 0.04 | 0.04 | 66 | |
| 20260505191522 | 62 | 287 | 8.0 | 13.0 | 0.00 | 0.04 | 0.04 | 66 | |
| 20260505191019 | 62 | 291 | 5.0 | 10.0 | 0.00 | 0.04 | 0.04 | 66 | |
| 20260505190519 | 62 | 279 | 5.0 | 12.0 | 0.00 | 0.04 | 0.04 | 66 | |
| 20260505190019 | 62 | 286 | 9.0 | 12.0 | 0.00 | 0.04 | 0.04 | 66 | |
| 20260505185519 | 62 | 300 | 7.0 | 10.0 | 0.00 | 0.04 | 0.04 | 66 | |
| 20260505185019 | 62 | 321 | 5.0 | 13.0 | 0.00 | 0.04 | 0.04 | 66 | |
| 20260505184518 | 62 | 319 | 5.0 | 13.0 | 0.00 | 0.04 | 0.04 | 66 | |
| 20260505184017 | 62 | 288 | 5.0 | 12.0 | 0.00 | 0.04 | 0.04 | 67 | |
| 20260505183515 | 62 | 310 | 7.0 | 12.0 | 0.00 | 0.04 | 0.04 | 66 | |
| 20260505183014 | 62 | 317 | 8.0 | 11.0 | 0.00 | 0.04 | 0.04 | 68 | |
| 20260505182512 | 62 | 300 | 6.0 | 11.0 | 0.00 | 0.04 | 0.04 | 68 | |
| 20260505182016 | 61 | 310 | 8.0 | 11.0 | 0.00 | 0.04 | 0.04 | 67 | |
| 20260505181513 | 61 | 304 | 7.0 | 11.0 | 0.00 | 0.04 | 0.04 | 68 | |
| 20260505181010 | 61 | 311 | 7.0 | 10.0 | 0.00 | 0.04 | 0.04 | 68 | |
| 20260505180509 | 61 | 323 | 5.0 | 10.0 | 0.00 | 0.04 | 0.04 | 67 | |
| 20260505180023 | 61 | 291 | 4.0 | 10.0 | 0.00 | 0.05 | 0.04 | 69 |